sensor_id;sensor_type;location;lat;lon;timestamp;P1;durP1;ratioP1;P2;durP2;ratioP2
60710;SDS011;46554;48.138;8.420;2023-09-19T00:00:41;1.23;;;1.23;;
60710;SDS011;46554;48.138;8.420;2023-09-19T00:05:38;1.30;;;1.30;;
60710;SDS011;46554;48.138;8.420;2023-09-19T00:08:09;0.70;;;0.52;;
60710;SDS011;46554;48.138;8.420;2023-09-19T00:10:34;0.45;;;0.45;;
60710;SDS011;46554;48.138;8.420;2023-09-19T00:13:04;0.47;;;0.47;;
60710;SDS011;46554;48.138;8.420;2023-09-19T00:15:36;0.50;;;0.50;;
60710;SDS011;46554;48.138;8.420;2023-09-19T00:18:03;0.40;;;0.40;;
60710;SDS011;46554;48.138;8.420;2023-09-19T00:20:32;0.38;;;0.20;;
60710;SDS011;46554;48.138;8.420;2023-09-19T00:23:00;0.80;;;0.35;;
60710;SDS011;46554;48.138;8.420;2023-09-19T00:25:27;0.38;;;0.38;;
60710;SDS011;46554;48.138;8.420;2023-09-19T00:28:00;0.52;;;0.52;;
60710;SDS011;46554;48.138;8.420;2023-09-19T00:30:28;0.77;;;0.77;;
60710;SDS011;46554;48.138;8.420;2023-09-19T00:32:54;5.05;;;4.85;;
60710;SDS011;46554;48.138;8.420;2023-09-19T00:35:25;3.72;;;3.53;;
60710;SDS011;46554;48.138;8.420;2023-09-19T00:37:51;3.28;;;3.17;;
60710;SDS011;46554;48.138;8.420;2023-09-19T00:40:18;2.85;;;2.75;;
60710;SDS011;46554;48.138;8.420;2023-09-19T00:42:46;2.33;;;2.22;;
60710;SDS011;46554;48.138;8.420;2023-09-19T00:45:13;2.05;;;1.98;;
60710;SDS011;46554;48.138;8.420;2023-09-19T00:47:44;2.08;;;2.03;;
60710;SDS011;46554;48.138;8.420;2023-09-19T00:52:39;1.52;;;1.48;;
60710;SDS011;46554;48.138;8.420;2023-09-19T00:55:08;1.15;;;1.15;;
60710;SDS011;46554;48.138;8.420;2023-09-19T00:57:35;0.95;;;0.85;;
60710;SDS011;46554;48.138;8.420;2023-09-19T01:00:09;0.55;;;0.55;;
60710;SDS011;46554;48.138;8.420;2023-09-19T01:02:40;0.63;;;0.63;;
60710;SDS011;46554;48.138;8.420;2023-09-19T01:05:07;0.43;;;0.40;;
60710;SDS011;46554;48.138;8.420;2023-09-19T01:07:33;0.60;;;0.60;;
60710;SDS011;46554;48.138;8.420;2023-09-19T01:09:59;0.30;;;0.30;;
60710;SDS011;46554;48.138;8.420;2023-09-19T01:18:26;0.75;;;0.75;;
60710;SDS011;46554;48.138;8.420;2023-09-19T01:26:19;0.93;;;0.82;;
60710;SDS011;46554;48.138;8.420;2023-09-19T01:29:12;1.70;;;1.70;;
60710;SDS011;46554;48.138;8.420;2023-09-19T01:31:54;1.73;;;1.70;;
60710;SDS011;46554;48.138;8.420;2023-09-19T01:34:23;1.33;;;1.33;;
60710;SDS011;46554;48.138;8.420;2023-09-19T01:36:48;1.63;;;1.63;;
60710;SDS011;46554;48.138;8.420;2023-09-19T01:39:14;1.95;;;1.85;;
60710;SDS011;46554;48.138;8.420;2023-09-19T01:44:29;0.93;;;0.93;;
60710;SDS011;46554;48.138;8.420;2023-09-19T01:47:01;2.15;;;2.05;;
60710;SDS011;46554;48.138;8.420;2023-09-19T01:52:12;0.55;;;0.55;;
60710;SDS011;46554;48.138;8.420;2023-09-19T01:54:45;2.47;;;0.63;;
60710;SDS011;46554;48.138;8.420;2023-09-19T01:57:17;0.40;;;0.40;;
60710;SDS011;46554;48.138;8.420;2023-09-19T01:59:49;0.32;;;0.32;;
60710;SDS011;46554;48.138;8.420;2023-09-19T02:02:19;0.47;;;0.47;;
60710;SDS011;46554;48.138;8.420;2023-09-19T02:04:47;0.40;;;0.40;;
60710;SDS011;46554;48.138;8.420;2023-09-19T02:07:16;0.30;;;0.25;;
60710;SDS011;46554;48.138;8.420;2023-09-19T02:09:43;0.45;;;0.45;;
60710;SDS011;46554;48.138;8.420;2023-09-19T02:12:09;0.40;;;0.40;;
60710;SDS011;46554;48.138;8.420;2023-09-19T02:14:35;0.90;;;0.40;;
60710;SDS011;46554;48.138;8.420;2023-09-19T02:17:01;0.45;;;0.45;;
60710;SDS011;46554;48.138;8.420;2023-09-19T02:19:30;0.30;;;0.30;;
60710;SDS011;46554;48.138;8.420;2023-09-19T02:21:59;0.60;;;0.60;;
60710;SDS011;46554;48.138;8.420;2023-09-19T02:24:28;0.68;;;0.40;;
60710;SDS011;46554;48.138;8.420;2023-09-19T02:26:53;0.55;;;0.30;;
60710;SDS011;46554;48.138;8.420;2023-09-19T02:29:19;0.50;;;0.50;;
60710;SDS011;46554;48.138;8.420;2023-09-19T02:31:47;0.30;;;0.30;;
60710;SDS011;46554;48.138;8.420;2023-09-19T02:34:12;0.30;;;0.30;;
60710;SDS011;46554;48.138;8.420;2023-09-19T02:36:44;0.65;;;0.65;;
60710;SDS011;46554;48.138;8.420;2023-09-19T02:39:10;0.50;;;0.50;;
60710;SDS011;46554;48.138;8.420;2023-09-19T02:41:37;0.93;;;0.90;;
60710;SDS011;46554;48.138;8.420;2023-09-19T02:44:03;4.45;;;1.05;;
60710;SDS011;46554;48.138;8.420;2023-09-19T02:46:32;1.13;;;1.13;;
60710;SDS011;46554;48.138;8.420;2023-09-19T02:48:58;1.20;;;1.20;;
60710;SDS011;46554;48.138;8.420;2023-09-19T02:51:26;1.30;;;1.30;;
60710;SDS011;46554;48.138;8.420;2023-09-19T02:53:51;1.98;;;1.90;;
60710;SDS011;46554;48.138;8.420;2023-09-19T02:56:20;2.03;;;1.92;;
60710;SDS011;46554;48.138;8.420;2023-09-19T02:58:46;2.03;;;1.92;;
60710;SDS011;46554;48.138;8.420;2023-09-19T03:01:13;2.28;;;2.17;;
60710;SDS011;46554;48.138;8.420;2023-09-19T03:03:42;2.58;;;2.47;;
60710;SDS011;46554;48.138;8.420;2023-09-19T03:06:12;2.08;;;2.05;;
60710;SDS011;46554;48.138;8.420;2023-09-19T03:08:38;2.38;;;2.28;;
60710;SDS011;46554;48.138;8.420;2023-09-19T03:11:10;4.55;;;2.38;;
60710;SDS011;46554;48.138;8.420;2023-09-19T03:13:36;3.47;;;3.38;;
60710;SDS011;46554;48.138;8.420;2023-09-19T03:16:03;4.40;;;4.13;;
60710;SDS011;46554;48.138;8.420;2023-09-19T03:18:30;4.18;;;3.97;;
60710;SDS011;46554;48.138;8.420;2023-09-19T03:20:59;4.07;;;3.88;;
60710;SDS011;46554;48.138;8.420;2023-09-19T03:23:30;2.20;;;2.08;;
60710;SDS011;46554;48.138;8.420;2023-09-19T03:25:55;2.10;;;2.05;;
60710;SDS011;46554;48.138;8.420;2023-09-19T03:28:21;5.50;;;5.00;;
60710;SDS011;46554;48.138;8.420;2023-09-19T03:30:57;0.70;;;0.70;;
60710;SDS011;46554;48.138;8.420;2023-09-19T03:33:24;0.80;;;0.80;;
60710;SDS011;46554;48.138;8.420;2023-09-19T03:35:53;0.90;;;0.90;;
60710;SDS011;46554;48.138;8.420;2023-09-19T03:38:19;1.00;;;1.00;;
60710;SDS011;46554;48.138;8.420;2023-09-19T03:40:45;1.05;;;1.05;;
60710;SDS011;46554;48.138;8.420;2023-09-19T03:43:10;1.13;;;1.13;;
60710;SDS011;46554;48.138;8.420;2023-09-19T03:45:38;0.40;;;0.40;;
60710;SDS011;46554;48.138;8.420;2023-09-19T03:48:08;0.20;;;0.20;;
60710;SDS011;46554;48.138;8.420;2023-09-19T03:50:36;0.40;;;0.40;;
60710;SDS011;46554;48.138;8.420;2023-09-19T03:53:02;4.38;;;0.20;;
60710;SDS011;46554;48.138;8.420;2023-09-19T03:55:31;0.40;;;0.32;;
60710;SDS011;46554;48.138;8.420;2023-09-19T03:57:57;1.00;;;1.00;;
60710;SDS011;46554;48.138;8.420;2023-09-19T04:00:22;6.80;;;0.80;;
60710;SDS011;46554;48.138;8.420;2023-09-19T04:02:51;0.80;;;0.80;;
60710;SDS011;46554;48.138;8.420;2023-09-19T04:05:17;0.60;;;0.60;;
60710;SDS011;46554;48.138;8.420;2023-09-19T04:07:45;0.95;;;0.95;;
60710;SDS011;46554;48.138;8.420;2023-09-19T04:10:11;0.90;;;0.90;;
60710;SDS011;46554;48.138;8.420;2023-09-19T04:12:37;2.03;;;1.00;;
60710;SDS011;46554;48.138;8.420;2023-09-19T04:15:06;0.80;;;0.80;;
60710;SDS011;46554;48.138;8.420;2023-09-19T04:17:38;0.80;;;0.80;;
60710;SDS011;46554;48.138;8.420;2023-09-19T04:20:03;5.47;;;0.80;;
60710;SDS011;46554;48.138;8.420;2023-09-19T04:22:32;0.43;;;0.40;;
60710;SDS011;46554;48.138;8.420;2023-09-19T04:24:58;0.68;;;0.68;;
60710;SDS011;46554;48.138;8.420;2023-09-19T04:27:25;0.30;;;0.30;;
60710;SDS011;46554;48.138;8.420;2023-09-19T04:29:50;2.45;;;1.67;;
60710;SDS011;46554;48.138;8.420;2023-09-19T04:32:18;7.63;;;4.50;;
60710;SDS011;46554;48.138;8.420;2023-09-19T04:34:43;1.55;;;1.15;;
60710;SDS011;46554;48.138;8.420;2023-09-19T04:37:08;1.08;;;0.75;;
60710;SDS011;46554;48.138;8.420;2023-09-19T04:39:34;1.23;;;0.50;;
60710;SDS011;46554;48.138;8.420;2023-09-19T04:42:02;0.30;;;0.30;;
60710;SDS011;46554;48.138;8.420;2023-09-19T04:44:28;0.40;;;0.40;;
60710;SDS011;46554;48.138;8.420;2023-09-19T04:46:54;0.40;;;0.40;;
60710;SDS011;46554;48.138;8.420;2023-09-19T04:49:19;0.32;;;0.32;;
60710;SDS011;46554;48.138;8.420;2023-09-19T04:51:44;1.23;;;0.60;;
60710;SDS011;46554;48.138;8.420;2023-09-19T04:54:11;0.43;;;0.40;;
60710;SDS011;46554;48.138;8.420;2023-09-19T04:56:37;0.32;;;0.32;;
60710;SDS011;46554;48.138;8.420;2023-09-19T04:59:07;0.32;;;0.32;;
60710;SDS011;46554;48.138;8.420;2023-09-19T05:01:38;1.55;;;0.30;;
60710;SDS011;46554;48.138;8.420;2023-09-19T05:06:35;0.22;;;0.22;;
60710;SDS011;46554;48.138;8.420;2023-09-19T05:09:01;0.25;;;0.25;;
60710;SDS011;46554;48.138;8.420;2023-09-19T05:11:26;0.52;;;0.40;;
60710;SDS011;46554;48.138;8.420;2023-09-19T05:13:51;0.15;;;0.15;;
60710;SDS011;46554;48.138;8.420;2023-09-19T05:16:20;0.30;;;0.30;;
60710;SDS011;46554;48.138;8.420;2023-09-19T05:18:45;0.20;;;0.20;;
60710;SDS011;46554;48.138;8.420;2023-09-19T05:21:14;0.38;;;0.38;;
60710;SDS011;46554;48.138;8.420;2023-09-19T05:23:40;0.70;;;0.70;;
60710;SDS011;46554;48.138;8.420;2023-09-19T05:26:08;0.40;;;0.40;;
60710;SDS011;46554;48.138;8.420;2023-09-19T05:28:33;0.75;;;0.68;;
60710;SDS011;46554;48.138;8.420;2023-09-19T05:31:00;0.52;;;0.52;;
60710;SDS011;46554;48.138;8.420;2023-09-19T05:33:27;3.63;;;0.50;;
60710;SDS011;46554;48.138;8.420;2023-09-19T05:35:52;0.70;;;0.70;;
60710;SDS011;46554;48.138;8.420;2023-09-19T05:38:21;0.55;;;0.55;;
60710;SDS011;46554;48.138;8.420;2023-09-19T05:40:51;1.95;;;0.63;;
60710;SDS011;46554;48.138;8.420;2023-09-19T05:43:17;0.55;;;0.55;;
60710;SDS011;46554;48.138;8.420;2023-09-19T05:45:46;0.20;;;0.20;;
60710;SDS011;46554;48.138;8.420;2023-09-19T05:48:25;1.40;;;0.60;;
60710;SDS011;46554;48.138;8.420;2023-09-19T05:50:50;0.52;;;0.52;;
60710;SDS011;46554;48.138;8.420;2023-09-19T05:53:16;0.95;;;0.95;;
60710;SDS011;46554;48.138;8.420;2023-09-19T05:55:43;0.73;;;0.73;;
60710;SDS011;46554;48.138;8.420;2023-09-19T05:58:09;0.60;;;0.60;;
60710;SDS011;46554;48.138;8.420;2023-09-19T06:00:35;0.40;;;0.40;;
60710;SDS011;46554;48.138;8.420;2023-09-19T06:03:03;2.05;;;1.95;;
60710;SDS011;46554;48.138;8.420;2023-09-19T06:05:28;1.33;;;1.23;;
60710;SDS011;46554;48.138;8.420;2023-09-19T06:07:57;1.58;;;1.55;;
60710;SDS011;46554;48.138;8.420;2023-09-19T06:10:25;2.08;;;1.98;;
60710;SDS011;46554;48.138;8.420;2023-09-19T06:12:54;1.02;;;1.02;;
60710;SDS011;46554;48.138;8.420;2023-09-19T06:15:23;0.50;;;0.50;;
60710;SDS011;46554;48.138;8.420;2023-09-19T06:17:52;2.58;;;1.38;;
60710;SDS011;46554;48.138;8.420;2023-09-19T06:20:22;2.53;;;1.73;;
60710;SDS011;46554;48.138;8.420;2023-09-19T06:22:50;0.70;;;0.70;;
60710;SDS011;46554;48.138;8.420;2023-09-19T06:25:18;0.80;;;0.52;;
60710;SDS011;46554;48.138;8.420;2023-09-19T06:27:50;1.05;;;0.93;;
60710;SDS011;46554;48.138;8.420;2023-09-19T06:30:21;0.93;;;0.65;;
60710;SDS011;46554;48.138;8.420;2023-09-19T06:32:49;0.55;;;0.55;;
60710;SDS011;46554;48.138;8.420;2023-09-19T06:35:15;0.50;;;0.50;;
60710;SDS011;46554;48.138;8.420;2023-09-19T06:37:41;0.70;;;0.70;;
60710;SDS011;46554;48.138;8.420;2023-09-19T06:42:35;2.75;;;2.65;;
60710;SDS011;46554;48.138;8.420;2023-09-19T06:45:02;4.78;;;4.57;;
60710;SDS011;46554;48.138;8.420;2023-09-19T06:47:29;6.70;;;6.20;;
60710;SDS011;46554;48.138;8.420;2023-09-19T06:49:56;4.55;;;4.35;;
60710;SDS011;46554;48.138;8.420;2023-09-19T06:52:24;7.55;;;7.22;;
60710;SDS011;46554;48.138;8.420;2023-09-19T06:54:58;5.38;;;5.07;;
60710;SDS011;46554;48.138;8.420;2023-09-19T06:57:23;2.70;;;2.60;;
60710;SDS011;46554;48.138;8.420;2023-09-19T06:59:49;2.63;;;2.53;;
60710;SDS011;46554;48.138;8.420;2023-09-19T07:02:15;2.72;;;2.63;;
60710;SDS011;46554;48.138;8.420;2023-09-19T07:04:40;1.35;;;1.35;;
60710;SDS011;46554;48.138;8.420;2023-09-19T07:07:08;0.95;;;0.95;;
60710;SDS011;46554;48.138;8.420;2023-09-19T07:09:37;1.40;;;1.30;;
60710;SDS011;46554;48.138;8.420;2023-09-19T07:12:03;1.40;;;1.30;;
60710;SDS011;46554;48.138;8.420;2023-09-19T07:14:29;0.60;;;0.60;;
60710;SDS011;46554;48.138;8.420;2023-09-19T07:16:55;0.70;;;0.70;;
60710;SDS011;46554;48.138;8.420;2023-09-19T07:19:25;2.92;;;0.93;;
60710;SDS011;46554;48.138;8.420;2023-09-19T07:21:56;0.75;;;0.75;;
60710;SDS011;46554;48.138;8.420;2023-09-19T07:24:27;1.02;;;1.02;;
60710;SDS011;46554;48.138;8.420;2023-09-19T07:26:54;4.03;;;3.88;;
60710;SDS011;46554;48.138;8.420;2023-09-19T07:29:19;4.15;;;3.95;;
60710;SDS011;46554;48.138;8.420;2023-09-19T07:31:45;2.20;;;2.10;;
60710;SDS011;46554;48.138;8.420;2023-09-19T07:34:12;2.63;;;2.53;;
60710;SDS011;46554;48.138;8.420;2023-09-19T07:36:39;2.65;;;2.55;;
60710;SDS011;46554;48.138;8.420;2023-09-19T07:39:06;2.15;;;2.05;;
60710;SDS011;46554;48.138;8.420;2023-09-19T07:41:34;2.60;;;2.50;;
60710;SDS011;46554;48.138;8.420;2023-09-19T07:44:00;2.22;;;2.15;;
60710;SDS011;46554;48.138;8.420;2023-09-19T07:46:26;0.73;;;0.73;;
60710;SDS011;46554;48.138;8.420;2023-09-19T07:48:51;1.67;;;1.58;;
60710;SDS011;46554;48.138;8.420;2023-09-19T07:51:21;2.95;;;2.85;;
60710;SDS011;46554;48.138;8.420;2023-09-19T07:53:49;1.98;;;1.88;;
60710;SDS011;46554;48.138;8.420;2023-09-19T07:56:16;2.20;;;2.10;;
60710;SDS011;46554;48.138;8.420;2023-09-19T07:58:44;2.22;;;2.13;;
60710;SDS011;46554;48.138;8.420;2023-09-19T08:01:10;1.73;;;1.73;;
60710;SDS011;46554;48.138;8.420;2023-09-19T08:03:38;1.50;;;1.50;;
60710;SDS011;46554;48.138;8.420;2023-09-19T08:06:06;1.38;;;1.27;;
60710;SDS011;46554;48.138;8.420;2023-09-19T08:08:32;0.80;;;0.80;;
60710;SDS011;46554;48.138;8.420;2023-09-19T08:11:19;0.88;;;0.88;;
60710;SDS011;46554;48.138;8.420;2023-09-19T08:13:46;0.55;;;0.55;;
60710;SDS011;46554;48.138;8.420;2023-09-19T08:16:18;1.48;;;1.48;;
60710;SDS011;46554;48.138;8.420;2023-09-19T08:18:47;1.15;;;1.15;;
60710;SDS011;46554;48.138;8.420;2023-09-19T08:21:13;3.10;;;2.90;;
60710;SDS011;46554;48.138;8.420;2023-09-19T08:23:39;7.90;;;7.57;;
60710;SDS011;46554;48.138;8.420;2023-09-19T08:26:05;11.10;;;10.52;;
60710;SDS011;46554;48.138;8.420;2023-09-19T08:28:33;3.45;;;3.35;;
60710;SDS011;46554;48.138;8.420;2023-09-19T08:31:05;3.47;;;3.30;;
60710;SDS011;46554;48.138;8.420;2023-09-19T08:33:35;0.95;;;0.95;;
60710;SDS011;46554;48.138;8.420;2023-09-19T08:36:03;1.10;;;0.75;;
60710;SDS011;46554;48.138;8.420;2023-09-19T08:40:58;0.68;;;0.68;;
60710;SDS011;46554;48.138;8.420;2023-09-19T08:43:25;1.35;;;1.35;;
60710;SDS011;46554;48.138;8.420;2023-09-19T08:49:10;2.35;;;2.25;;
60710;SDS011;46554;48.138;8.420;2023-09-19T08:51:47;1.42;;;1.42;;
60710;SDS011;46554;48.138;8.420;2023-09-19T08:54:24;0.82;;;0.82;;
60710;SDS011;46554;48.138;8.420;2023-09-19T08:56:54;1.70;;;1.70;;
60710;SDS011;46554;48.138;8.420;2023-09-19T08:59:24;4.47;;;4.28;;
60710;SDS011;46554;48.138;8.420;2023-09-19T09:01:54;4.50;;;4.20;;
60710;SDS011;46554;48.138;8.420;2023-09-19T09:06:47;8.60;;;8.20;;
60710;SDS011;46554;48.138;8.420;2023-09-19T09:09:16;14.32;;;13.70;;
60710;SDS011;46554;48.138;8.420;2023-09-19T09:11:42;14.13;;;13.27;;
60710;SDS011;46554;48.138;8.420;2023-09-19T09:14:07;17.92;;;17.08;;
60710;SDS011;46554;48.138;8.420;2023-09-19T09:16:32;7.70;;;7.40;;
60710;SDS011;46554;48.138;8.420;2023-09-19T09:18:59;2.50;;;2.40;;
60710;SDS011;46554;48.138;8.420;2023-09-19T09:21:27;2.78;;;2.67;;
60710;SDS011;46554;48.138;8.420;2023-09-19T09:23:53;3.40;;;3.25;;
60710;SDS011;46554;48.138;8.420;2023-09-19T09:29:05;3.58;;;3.47;;
60710;SDS011;46554;48.138;8.420;2023-09-19T09:31:30;3.10;;;2.90;;
60710;SDS011;46554;48.138;8.420;2023-09-19T09:33:56;1.90;;;1.80;;
60710;SDS011;46554;48.138;8.420;2023-09-19T09:36:35;1.60;;;1.50;;
60710;SDS011;46554;48.138;8.420;2023-09-19T09:39:06;4.75;;;4.55;;
60710;SDS011;46554;48.138;8.420;2023-09-19T09:41:52;7.88;;;7.53;;
60710;SDS011;46554;48.138;8.420;2023-09-19T09:44:17;5.32;;;5.13;;
60710;SDS011;46554;48.138;8.420;2023-09-19T09:46:44;4.85;;;4.55;;
60710;SDS011;46554;48.138;8.420;2023-09-19T09:49:40;4.18;;;4.00;;
60710;SDS011;46554;48.138;8.420;2023-09-19T09:52:06;3.97;;;3.78;;
60710;SDS011;46554;48.138;8.420;2023-09-19T09:54:33;2.50;;;2.40;;
60710;SDS011;46554;48.138;8.420;2023-09-19T09:57:02;1.73;;;1.73;;
60710;SDS011;46554;48.138;8.420;2023-09-19T09:59:51;1.90;;;1.80;;
60710;SDS011;46554;48.138;8.420;2023-09-19T10:02:28;2.63;;;2.53;;
60710;SDS011;46554;48.138;8.420;2023-09-19T10:04:58;3.58;;;3.45;;
60710;SDS011;46554;48.138;8.420;2023-09-19T10:07:32;2.67;;;1.67;;
60710;SDS011;46554;48.138;8.420;2023-09-19T10:10:04;2.05;;;1.95;;
60710;SDS011;46554;48.138;8.420;2023-09-19T10:12:42;1.08;;;1.08;;
60710;SDS011;46554;48.138;8.420;2023-09-19T10:15:14;1.40;;;1.40;;
60710;SDS011;46554;48.138;8.420;2023-09-19T10:17:46;1.45;;;1.45;;
60710;SDS011;46554;48.138;8.420;2023-09-19T10:20:12;1.02;;;1.00;;
60710;SDS011;46554;48.138;8.420;2023-09-19T10:22:57;1.33;;;1.33;;
60710;SDS011;46554;48.138;8.420;2023-09-19T10:25:26;1.40;;;1.40;;
60710;SDS011;46554;48.138;8.420;2023-09-19T10:27:58;1.10;;;1.10;;
60710;SDS011;46554;48.138;8.420;2023-09-19T10:30:27;1.00;;;1.00;;
60710;SDS011;46554;48.138;8.420;2023-09-19T10:33:02;1.45;;;1.35;;
60710;SDS011;46554;48.138;8.420;2023-09-19T10:35:28;3.40;;;2.58;;
60710;SDS011;46554;48.138;8.420;2023-09-19T10:37:55;1.13;;;1.08;;
60710;SDS011;46554;48.138;8.420;2023-09-19T10:40:22;5.03;;;4.75;;
60710;SDS011;46554;48.138;8.420;2023-09-19T10:42:57;2.10;;;2.00;;
60710;SDS011;46554;48.138;8.420;2023-09-19T10:45:28;5.43;;;5.00;;
60710;SDS011;46554;48.138;8.420;2023-09-19T10:47:54;2.00;;;1.90;;
60710;SDS011;46554;48.138;8.420;2023-09-19T10:50:21;5.88;;;5.68;;
60710;SDS011;46554;48.138;8.420;2023-09-19T10:52:47;4.97;;;4.75;;
60710;SDS011;46554;48.138;8.420;2023-09-19T10:55:18;3.55;;;3.45;;
60710;SDS011;46554;48.138;8.420;2023-09-19T10:57:45;3.88;;;3.67;;
60710;SDS011;46554;48.138;8.420;2023-09-19T11:00:13;3.33;;;3.22;;
60710;SDS011;46554;48.138;8.420;2023-09-19T11:05:40;15.82;;;15.02;;
60710;SDS011;46554;48.138;8.420;2023-09-19T11:08:09;1.48;;;1.48;;
60710;SDS011;46554;48.138;8.420;2023-09-19T11:10:46;0.65;;;0.65;;
60710;SDS011;46554;48.138;8.420;2023-09-19T11:13:29;3.90;;;3.75;;
60710;SDS011;46554;48.138;8.420;2023-09-19T11:16:03;1.83;;;1.73;;
60710;SDS011;46554;48.138;8.420;2023-09-19T11:24:56;15.50;;;14.82;;
60710;SDS011;46554;48.138;8.420;2023-09-19T11:27:14;7.88;;;7.47;;
60710;SDS011;46554;48.138;8.420;2023-09-19T11:29:45;10.25;;;9.48;;
60710;SDS011;46554;48.138;8.420;2023-09-19T11:32:10;8.68;;;8.20;;
60710;SDS011;46554;48.138;8.420;2023-09-19T11:40:08;15.57;;;14.75;;
60710;SDS011;46554;48.138;8.420;2023-09-19T11:42:47;14.88;;;14.18;;
60710;SDS011;46554;48.138;8.420;2023-09-19T11:48:11;19.23;;;18.38;;
60710;SDS011;46554;48.138;8.420;2023-09-19T11:50:41;15.30;;;14.50;;
60710;SDS011;46554;48.138;8.420;2023-09-19T11:53:09;10.48;;;9.98;;
60710;SDS011;46554;48.138;8.420;2023-09-19T11:55:41;10.52;;;10.02;;
60710;SDS011;46554;48.138;8.420;2023-09-19T11:58:09;13.52;;;12.85;;
60710;SDS011;46554;48.138;8.420;2023-09-19T12:00:38;6.50;;;6.20;;
60710;SDS011;46554;48.138;8.420;2023-09-19T12:03:11;16.75;;;16.00;;
60710;SDS011;46554;48.138;8.420;2023-09-19T12:05:39;13.60;;;13.02;;
60710;SDS011;46554;48.138;8.420;2023-09-19T12:08:07;28.85;;;27.55;;
60710;SDS011;46554;48.138;8.420;2023-09-19T12:10:43;27.60;;;26.30;;
60710;SDS011;46554;48.138;8.420;2023-09-19T12:13:19;27.33;;;26.08;;
60710;SDS011;46554;48.138;8.420;2023-09-19T12:15:45;13.93;;;13.27;;
60710;SDS011;46554;48.138;8.420;2023-09-19T12:18:34;19.70;;;18.75;;
60710;SDS011;46554;48.138;8.420;2023-09-19T12:21:03;32.38;;;30.83;;
60710;SDS011;46554;48.138;8.420;2023-09-19T12:23:32;18.63;;;17.77;;
60710;SDS011;46554;48.138;8.420;2023-09-19T12:26:02;17.60;;;16.75;;
60710;SDS011;46554;48.138;8.420;2023-09-19T12:28:38;30.77;;;29.13;;
60710;SDS011;46554;48.138;8.420;2023-09-19T12:31:07;12.75;;;12.10;;
60710;SDS011;46554;48.138;8.420;2023-09-19T12:33:33;7.40;;;7.10;;
60710;SDS011;46554;48.138;8.420;2023-09-19T12:36:00;3.47;;;3.28;;
60710;SDS011;46554;48.138;8.420;2023-09-19T12:38:28;15.82;;;15.13;;
60710;SDS011;46554;48.138;8.420;2023-09-19T12:40:57;26.70;;;25.50;;
60710;SDS011;46554;48.138;8.420;2023-09-19T12:43:25;12.55;;;11.98;;
60710;SDS011;46554;48.138;8.420;2023-09-19T12:45:54;6.53;;;6.22;;
60710;SDS011;46554;48.138;8.420;2023-09-19T12:48:20;3.70;;;3.50;;
60710;SDS011;46554;48.138;8.420;2023-09-19T12:51:00;7.28;;;6.88;;
60710;SDS011;46554;48.138;8.420;2023-09-19T12:53:30;5.60;;;5.35;;
60710;SDS011;46554;48.138;8.420;2023-09-19T12:55:59;6.28;;;5.38;;
60710;SDS011;46554;48.138;8.420;2023-09-19T12:58:25;5.10;;;4.90;;
60710;SDS011;46554;48.138;8.420;2023-09-19T13:00:50;4.43;;;4.22;;
60710;SDS011;46554;48.138;8.420;2023-09-19T13:13:32;1.67;;;1.55;;
60710;SDS011;46554;48.138;8.420;2023-09-19T13:15:58;3.35;;;3.25;;
60710;SDS011;46554;48.138;8.420;2023-09-19T13:18:26;4.47;;;4.22;;
60710;SDS011;46554;48.138;8.420;2023-09-19T13:21:10;4.30;;;4.10;;
60710;SDS011;46554;48.138;8.420;2023-09-19T13:23:52;5.75;;;5.25;;
60710;SDS011;46554;48.138;8.420;2023-09-19T13:26:26;1.30;;;1.20;;
60710;SDS011;46554;48.138;8.420;2023-09-19T13:28:54;1.60;;;1.50;;
60710;SDS011;46554;48.138;8.420;2023-09-19T13:31:20;4.68;;;3.90;;
60710;SDS011;46554;48.138;8.420;2023-09-19T13:33:47;2.00;;;1.15;;
60710;SDS011;46554;48.138;8.420;2023-09-19T13:36:16;2.58;;;2.38;;
60710;SDS011;46554;48.138;8.420;2023-09-19T13:38:43;2.53;;;1.77;;
60710;SDS011;46554;48.138;8.420;2023-09-19T13:41:09;1.40;;;1.40;;
60710;SDS011;46554;48.138;8.420;2023-09-19T13:43:36;3.03;;;2.92;;
60710;SDS011;46554;48.138;8.420;2023-09-19T13:46:04;3.00;;;2.08;;
60710;SDS011;46554;48.138;8.420;2023-09-19T13:48:37;2.17;;;2.08;;
60710;SDS011;46554;48.138;8.420;2023-09-19T13:51:03;1.67;;;1.58;;
60710;SDS011;46554;48.138;8.420;2023-09-19T13:53:29;0.75;;;0.75;;
60710;SDS011;46554;48.138;8.420;2023-09-19T13:55:55;3.92;;;3.80;;
60710;SDS011;46554;48.138;8.420;2023-09-19T13:58:22;4.60;;;4.40;;
60710;SDS011;46554;48.138;8.420;2023-09-19T14:00:49;2.47;;;2.38;;
60710;SDS011;46554;48.138;8.420;2023-09-19T14:03:17;7.57;;;7.25;;
60710;SDS011;46554;48.138;8.420;2023-09-19T14:05:48;3.50;;;3.40;;
60710;SDS011;46554;48.138;8.420;2023-09-19T14:08:17;2.85;;;2.75;;
60710;SDS011;46554;48.138;8.420;2023-09-19T14:10:42;1.80;;;1.70;;
60710;SDS011;46554;48.138;8.420;2023-09-19T14:13:08;10.05;;;9.63;;
60710;SDS011;46554;48.138;8.420;2023-09-19T14:15:36;4.15;;;3.97;;
60710;SDS011;46554;48.138;8.420;2023-09-19T14:18:03;9.30;;;8.88;;
60710;SDS011;46554;48.138;8.420;2023-09-19T14:20:29;5.47;;;5.18;;
60710;SDS011;46554;48.138;8.420;2023-09-19T14:22:55;3.10;;;2.90;;
60710;SDS011;46554;48.138;8.420;2023-09-19T14:25:24;2.28;;;2.17;;
60710;SDS011;46554;48.138;8.420;2023-09-19T14:27:49;1.80;;;1.70;;
60710;SDS011;46554;48.138;8.420;2023-09-19T14:30:15;2.10;;;2.00;;
60710;SDS011;46554;48.138;8.420;2023-09-19T14:32:40;1.88;;;1.77;;
60710;SDS011;46554;48.138;8.420;2023-09-19T14:38:06;3.10;;;3.00;;
60710;SDS011;46554;48.138;8.420;2023-09-19T14:40:32;3.53;;;3.38;;
60710;SDS011;46554;48.138;8.420;2023-09-19T14:43:03;4.13;;;3.92;;
60710;SDS011;46554;48.138;8.420;2023-09-19T14:45:29;1.52;;;1.42;;
60710;SDS011;46554;48.138;8.420;2023-09-19T14:47:58;1.55;;;1.42;;
60710;SDS011;46554;48.138;8.420;2023-09-19T14:50:30;1.48;;;1.48;;
60710;SDS011;46554;48.138;8.420;2023-09-19T14:52:56;3.17;;;2.95;;
60710;SDS011;46554;48.138;8.420;2023-09-19T14:55:21;1.90;;;1.80;;
60710;SDS011;46554;48.138;8.420;2023-09-19T14:57:49;8.30;;;7.93;;
60710;SDS011;46554;48.138;8.420;2023-09-19T15:00:17;13.45;;;12.85;;
60710;SDS011;46554;48.138;8.420;2023-09-19T15:02:46;4.57;;;4.28;;
60710;SDS011;46554;48.138;8.420;2023-09-19T15:05:14;5.60;;;5.30;;
60710;SDS011;46554;48.138;8.420;2023-09-19T15:07:40;5.10;;;4.90;;
60710;SDS011;46554;48.138;8.420;2023-09-19T15:10:08;3.72;;;3.53;;
60710;SDS011;46554;48.138;8.420;2023-09-19T15:12:35;3.42;;;3.28;;
60710;SDS011;46554;48.138;8.420;2023-09-19T15:15:05;9.52;;;9.13;;
60710;SDS011;46554;48.138;8.420;2023-09-19T15:17:34;4.38;;;4.18;;
60710;SDS011;46554;48.138;8.420;2023-09-19T15:20:03;3.45;;;3.25;;
60710;SDS011;46554;48.138;8.420;2023-09-19T15:22:30;4.25;;;3.97;;
60710;SDS011;46554;48.138;8.420;2023-09-19T15:24:55;2.65;;;2.55;;
60710;SDS011;46554;48.138;8.420;2023-09-19T15:27:21;5.20;;;5.00;;
60710;SDS011;46554;48.138;8.420;2023-09-19T15:29:46;5.75;;;5.45;;
60710;SDS011;46554;48.138;8.420;2023-09-19T15:32:14;6.07;;;5.78;;
60710;SDS011;46554;48.138;8.420;2023-09-19T15:34:39;7.32;;;6.93;;
60710;SDS011;46554;48.138;8.420;2023-09-19T15:37:05;4.22;;;4.03;;
60710;SDS011;46554;48.138;8.420;2023-09-19T15:39:30;4.10;;;3.90;;
60710;SDS011;46554;48.138;8.420;2023-09-19T15:41:59;2.60;;;2.50;;
60710;SDS011;46554;48.138;8.420;2023-09-19T15:44:24;10.25;;;9.77;;
60710;SDS011;46554;48.138;8.420;2023-09-19T15:46:52;8.57;;;8.20;;
60710;SDS011;46554;48.138;8.420;2023-09-19T15:49:17;5.95;;;5.70;;
60710;SDS011;46554;48.138;8.420;2023-09-19T15:51:43;4.47;;;4.18;;
60710;SDS011;46554;48.138;8.420;2023-09-19T15:54:12;10.48;;;9.75;;
60710;SDS011;46554;48.138;8.420;2023-09-19T15:56:39;7.28;;;6.97;;
60710;SDS011;46554;48.138;8.420;2023-09-19T15:59:06;3.58;;;3.38;;
60710;SDS011;46554;48.138;8.420;2023-09-19T16:01:34;7.28;;;6.95;;